createdAt,value
2019-03-05T00:01:09.404Z,23.40
2019-03-05T00:03:46.910Z,23.50
2019-03-05T00:06:23.953Z,23.70
2019-03-05T00:09:00.634Z,23.90
2019-03-05T00:11:38.915Z,24.00
2019-03-05T00:14:15.654Z,24.30
2019-03-05T00:16:52.642Z,24.30
2019-03-05T00:19:29.671Z,24.50
2019-03-05T00:22:07.939Z,24.80
2019-03-05T00:25:09.547Z,24.90
2019-03-05T00:28:16.226Z,25.00
2019-03-05T00:31:02.040Z,25.20
2019-03-05T00:34:27.009Z,25.20
2019-03-05T00:37:11.160Z,25.40
2019-03-05T00:40:25.824Z,25.50
2019-03-05T00:43:31.499Z,25.60
2019-03-05T00:46:47.992Z,25.80
2019-03-05T00:50:02.614Z,26.00
2019-03-05T00:53:04.179Z,26.20
2019-03-05T00:56:14.362Z,26.30
2019-03-05T00:59:14.237Z,26.50
2019-03-05T01:02:22.138Z,26.80
2019-03-05T01:05:59.546Z,26.70
2019-03-05T01:08:36.717Z,26.90
2019-03-05T01:11:13.497Z,27.10
2019-03-05T01:13:50.417Z,27.30
2019-03-05T01:16:30.396Z,27.30
2019-03-05T01:19:07.639Z,27.60
2019-03-05T01:21:44.600Z,27.60
2019-03-05T01:24:22.416Z,27.70
2019-03-05T01:26:58.662Z,27.90
2019-03-05T01:29:35.725Z,28.10
2019-03-05T01:32:29.123Z,28.10
2019-03-05T01:35:13.766Z,28.30
2019-03-05T01:37:50.634Z,28.40
2019-03-05T01:40:54.911Z,28.40
2019-03-05T01:43:31.674Z,28.60
2019-03-05T01:46:08.837Z,28.70
2019-03-05T01:48:44.973Z,28.80
2019-03-05T01:51:21.341Z,28.70
2019-03-05T01:53:58.083Z,28.90
2019-03-05T01:56:36.481Z,28.90
2019-03-05T01:59:13.469Z,29.00
2019-03-05T02:01:50.396Z,29.10
2019-03-05T02:04:28.113Z,29.40
2019-03-05T02:07:04.942Z,29.30
2019-03-05T02:09:41.910Z,29.30
2019-03-05T02:12:18.893Z,29.30
2019-03-05T02:14:56.903Z,29.40
2019-03-05T02:17:33.716Z,29.50
2019-03-05T02:20:13.691Z,29.70
2019-03-05T02:23:03.327Z,29.90
2019-03-05T02:26:02.672Z,29.80
2019-03-05T02:29:04.243Z,29.90
2019-03-05T02:32:05.818Z,30.00
2019-03-05T02:35:05.577Z,30.00
2019-03-05T02:38:13.142Z,30.00
2019-03-05T02:41:31.496Z,30.00
2019-03-05T02:45:01.948Z,30.30
2019-03-05T02:48:11.363Z,30.30
2019-03-05T02:51:28.330Z,30.40
2019-03-05T02:54:56.374Z,30.50
2019-03-05T02:57:29.028Z,30.50
2019-03-05T03:00:06.411Z,30.80
2019-03-05T03:03:07.660Z,31.00
2019-03-05T03:06:05.325Z,31.00
2019-03-05T03:08:42.237Z,31.00
2019-03-05T03:11:19.470Z,31.20
2019-03-05T03:13:56.301Z,31.20
2019-03-05T03:16:33.844Z,31.30
2019-03-05T03:19:10.559Z,31.60
2019-03-05T03:21:47.454Z,31.80
2019-03-05T03:24:24.121Z,31.70
2019-03-05T03:27:00.965Z,31.80
2019-03-05T03:29:37.869Z,31.70
2019-03-05T03:32:15.684Z,31.90
2019-03-05T03:34:52.645Z,32.10
2019-03-05T03:37:29.523Z,32.10
2019-03-05T03:40:07.417Z,32.20
2019-03-05T03:42:45.846Z,32.30
2019-03-05T03:45:25.192Z,32.30
2019-03-05T03:48:01.678Z,32.30
2019-03-05T03:50:38.559Z,32.70
2019-03-05T03:53:14.729Z,32.60
2019-03-05T03:55:51.325Z,32.60
2019-03-05T03:58:28.995Z,32.70
2019-03-05T04:01:07.176Z,32.60
2019-03-05T04:03:44.093Z,32.40
2019-03-05T04:06:21.384Z,32.60
2019-03-05T04:08:58.224Z,33.00
2019-03-05T04:11:35.123Z,33.00
2019-03-05T04:14:12.072Z,33.00
2019-03-05T04:16:49.164Z,33.10
2019-03-05T04:19:30.341Z,33.30
2019-03-05T04:22:06.712Z,33.20
2019-03-05T04:24:43.756Z,33.20
2019-03-05T04:27:20.379Z,33.20
2019-03-05T04:29:57.037Z,33.30
2019-03-05T04:32:33.136Z,33.30
2019-03-05T04:35:11.082Z,33.30
2019-03-05T04:37:47.955Z,33.70
2019-03-05T04:40:24.647Z,33.80
2019-03-05T04:43:04.877Z,33.80
2019-03-05T04:46:02.364Z,33.90
2019-03-05T04:48:40.359Z,34.10
2019-03-05T04:51:33.453Z,34.30
2019-03-05T04:54:10.513Z,34.20
2019-03-05T04:56:47.452Z,34.20
2019-03-05T04:59:24.887Z,34.20
2019-03-05T05:02:01.823Z,34.10
2019-03-05T05:04:39.243Z,34.20
2019-03-05T05:07:16.056Z,34.60
2019-03-05T05:09:53.325Z,34.70
2019-03-05T05:12:32.113Z,34.60
2019-03-05T05:15:11.514Z,34.50
2019-03-05T05:17:48.714Z,34.30
2019-03-05T05:20:25.560Z,34.80
2019-03-05T05:23:02.718Z,35.20
2019-03-05T05:25:38.910Z,35.10
2019-03-05T05:28:32.988Z,35.10
2019-03-05T05:31:09.458Z,34.90
2019-03-05T05:33:46.357Z,34.80
2019-03-05T05:36:23.066Z,34.70
2019-03-05T05:38:59.583Z,34.90
2019-03-05T05:41:38.109Z,34.60
2019-03-05T05:44:14.726Z,34.40
2019-03-05T05:46:51.662Z,34.90
2019-03-05T05:49:28.328Z,35.10
2019-03-05T05:52:04.930Z,35.30
2019-03-05T05:54:41.977Z,35.50
2019-03-05T05:57:18.714Z,35.40
2019-03-05T05:59:55.343Z,35.30
2019-03-05T06:02:34.286Z,35.40
2019-03-05T06:05:11.360Z,35.60
2019-03-05T06:07:48.076Z,35.60
2019-03-05T06:10:26.447Z,35.80
2019-03-05T06:13:04.762Z,35.20
2019-03-05T06:15:41.670Z,35.30
2019-03-05T06:18:18.371Z,35.60
2019-03-05T06:20:54.977Z,36.00
2019-03-05T06:23:32.220Z,36.10
2019-03-05T06:26:10.239Z,36.00
2019-03-05T06:29:04.030Z,35.80
2019-03-05T06:31:42.040Z,36.00
2019-03-05T06:34:19.497Z,35.40
2019-03-05T06:37:01.449Z,35.60
2019-03-05T06:39:38.504Z,36.10
2019-03-05T06:42:15.371Z,35.70
2019-03-05T06:44:52.175Z,35.80
2019-03-05T06:47:28.848Z,35.80
2019-03-05T06:50:06.159Z,35.60
2019-03-05T06:52:44.086Z,35.80
2019-03-05T06:55:21.175Z,35.20
2019-03-05T06:57:57.852Z,34.90
2019-03-05T07:00:39.060Z,35.10
2019-03-05T07:03:16.775Z,35.70
2019-03-05T07:06:26.849Z,36.00
2019-03-05T07:09:24.315Z,36.00
2019-03-05T07:12:20.452Z,36.00
2019-03-05T07:15:25.175Z,36.30
2019-03-05T07:21:20.055Z,36.40
2019-03-05T07:24:37.135Z,36.40
2019-03-05T07:27:15.350Z,36.00
2019-03-05T07:29:51.910Z,35.30
2019-03-05T07:32:29.465Z,35.10
2019-03-05T07:35:06.792Z,34.90
2019-03-05T07:37:43.760Z,34.90
2019-03-05T07:40:20.684Z,35.40
2019-03-05T07:42:57.201Z,35.80
2019-03-05T07:45:34.555Z,36.10
2019-03-05T07:48:11.655Z,36.10
2019-03-05T07:50:48.742Z,36.00
2019-03-05T07:53:27.137Z,36.00
2019-03-05T07:56:04.528Z,36.00
2019-03-05T07:58:42.592Z,35.90
2019-03-05T08:01:22.487Z,35.60
2019-03-05T08:04:00.078Z,35.60
2019-03-05T08:06:37.036Z,35.60
2019-03-05T08:09:37.454Z,35.40
2019-03-05T08:12:28.098Z,35.10
2019-03-05T08:15:15.396Z,34.90
2019-03-05T08:17:52.415Z,34.80
2019-03-05T08:20:28.724Z,34.80
2019-03-05T08:23:05.803Z,34.70
2019-03-05T08:25:42.205Z,34.80
2019-03-05T08:28:19.650Z,35.20
2019-03-05T08:30:56.679Z,35.50
2019-03-05T08:33:33.791Z,35.60
2019-03-05T08:36:10.635Z,35.70
2019-03-05T08:38:47.656Z,35.70
2019-03-05T08:41:24.395Z,35.60
2019-03-05T08:44:01.543Z,35.60
2019-03-05T08:46:38.919Z,35.60
2019-03-05T08:49:17.895Z,35.60
2019-03-05T08:51:54.516Z,35.50
2019-03-05T08:54:31.965Z,35.50
2019-03-05T08:57:08.674Z,35.50
2019-03-05T08:59:45.182Z,35.40
2019-03-05T09:02:22.517Z,35.40
2019-03-05T09:04:59.911Z,35.40
2019-03-05T09:07:36.773Z,35.50
2019-03-05T09:10:17.511Z,35.40
2019-03-05T09:12:54.379Z,34.90
2019-03-05T09:15:32.121Z,35.10
2019-03-05T09:18:08.671Z,35.10
2019-03-05T09:21:01.463Z,35.20
2019-03-05T09:23:39.452Z,35.00
2019-03-05T09:26:16.483Z,34.80
2019-03-05T09:28:53.611Z,34.80
2019-03-05T09:31:30.926Z,34.90
2019-03-05T09:34:08.167Z,34.90
2019-03-05T09:36:51.024Z,35.00
2019-03-05T09:39:23.642Z,34.90
2019-03-05T09:42:01.063Z,34.90
2019-03-05T09:44:37.743Z,35.00
2019-03-05T09:47:14.452Z,35.00
2019-03-05T09:49:51.368Z,34.90
2019-03-05T09:52:28.687Z,34.80
2019-03-05T09:55:05.716Z,34.80
2019-03-05T09:57:43.716Z,34.70
2019-03-05T10:00:22.960Z,34.70
2019-03-05T10:03:00.922Z,34.70
2019-03-05T10:05:38.404Z,34.60
2019-03-05T10:08:15.748Z,34.60
2019-03-05T10:10:52.987Z,34.60
2019-03-05T10:13:30.175Z,34.60
2019-03-05T10:16:07.082Z,34.50
2019-03-05T10:18:44.665Z,34.50
2019-03-05T10:21:22.593Z,34.40
2019-03-05T10:24:09.712Z,34.40
2019-03-05T10:26:38.424Z,34.40
2019-03-05T10:29:15.456Z,34.30
2019-03-05T10:31:52.487Z,34.20
2019-03-05T10:34:29.503Z,34.20
2019-03-05T10:37:12.609Z,34.20
2019-03-05T10:39:45.349Z,34.10
2019-03-05T10:42:22.552Z,34.10
2019-03-05T10:44:59.670Z,34.00
2019-03-05T10:47:36.693Z,33.90
2019-03-05T10:50:16.597Z,33.70
2019-03-05T10:52:54.052Z,33.80
2019-03-05T10:55:31.694Z,33.70
2019-03-05T10:58:08.725Z,33.70
2019-03-05T11:00:47.860Z,33.60
2019-03-05T11:03:26.401Z,33.40
2019-03-05T11:06:03.875Z,33.30
2019-03-05T11:08:41.472Z,33.30
2019-03-05T11:11:18.680Z,33.20
2019-03-05T11:13:56.052Z,32.60
2019-03-05T11:16:33.488Z,32.40
2019-03-05T11:19:11.254Z,32.20
2019-03-05T11:21:48.158Z,32.00
2019-03-05T11:24:25.252Z,31.80
2019-03-05T11:27:02.582Z,31.70
2019-03-05T11:29:39.358Z,31.60
2019-03-05T11:32:16.072Z,31.40
2019-03-05T11:34:53.442Z,31.40
2019-03-05T11:37:30.173Z,31.30
2019-03-05T11:40:07.346Z,31.20
2019-03-05T11:42:43.933Z,31.10
2019-03-05T11:45:28.933Z,30.90
2019-03-05T11:48:06.461Z,30.80
2019-03-05T11:50:43.945Z,30.60
2019-03-05T11:53:21.899Z,30.60
2019-03-05T11:55:58.844Z,30.60
2019-03-05T11:58:36.458Z,30.60
2019-03-05T12:01:23.126Z,31.30
2019-03-05T12:04:01.957Z,31.90
2019-03-05T12:06:39.098Z,32.00
2019-03-05T12:09:16.940Z,31.90
2019-03-05T12:11:53.691Z,31.80
2019-03-05T12:14:30.533Z,31.70
2019-03-05T12:17:07.771Z,31.60
2019-03-05T12:19:44.784Z,31.50
2019-03-05T12:22:21.683Z,31.60
2019-03-05T12:25:01.708Z,31.50
2019-03-05T12:27:37.031Z,31.40
2019-03-05T12:30:16.479Z,31.30
2019-03-05T12:32:53.297Z,31.30
2019-03-05T12:35:30.927Z,31.20
2019-03-05T12:38:08.274Z,31.40
2019-03-05T12:40:45.324Z,31.60
2019-03-05T12:43:22.446Z,31.40
2019-03-05T12:46:00.065Z,31.30
2019-03-05T12:48:40.405Z,31.20
2019-03-05T12:51:15.863Z,31.00
2019-03-05T12:53:53.311Z,31.00
2019-03-05T12:56:30.930Z,31.00
2019-03-05T12:59:08.100Z,30.90
2019-03-05T13:01:45.964Z,30.90
2019-03-05T13:04:22.967Z,30.90
2019-03-05T13:07:00.394Z,30.90
2019-03-05T13:09:37.351Z,30.80
2019-03-05T13:12:14.689Z,30.70
2019-03-05T13:14:51.724Z,30.70
2019-03-05T13:17:29.140Z,30.50
2019-03-05T13:20:06.001Z,30.40
2019-03-05T13:22:45.613Z,30.20
2019-03-05T13:25:24.319Z,30.20
2019-03-05T13:28:03.972Z,30.10
2019-03-05T13:30:40.462Z,29.70
2019-03-05T13:33:18.140Z,29.60
2019-03-05T13:35:54.921Z,29.60
2019-03-05T13:38:32.390Z,29.60
2019-03-05T13:41:12.150Z,29.50
2019-03-05T13:43:47.022Z,29.60
2019-03-05T13:46:25.841Z,29.70
2019-03-05T13:53:14.737Z,29.30
2019-03-05T13:56:23.607Z,29.20
2019-03-05T13:59:36.744Z,29.30
2019-03-05T14:02:14.175Z,29.50
2019-03-05T14:05:05.549Z,29.60
2019-03-05T14:08:20.001Z,29.50
2019-03-05T14:10:57.027Z,29.50
2019-03-05T14:13:34.016Z,29.50
2019-03-05T14:16:13.620Z,29.50
2019-03-05T14:18:50.642Z,29.50
2019-03-05T14:21:27.754Z,29.50
2019-03-05T14:24:05.700Z,29.50
2019-03-05T14:26:42.983Z,29.40
2019-03-05T14:29:19.996Z,29.50
2019-03-05T14:31:57.450Z,29.50
2019-03-05T14:34:34.297Z,29.50
2019-03-05T14:37:11.770Z,29.40
2019-03-05T14:39:49.071Z,29.50
2019-03-05T14:42:26.151Z,29.40
2019-03-05T14:45:03.331Z,29.40
2019-03-05T14:47:42.150Z,29.40
2019-03-05T14:50:19.338Z,29.30
2019-03-05T14:52:56.653Z,29.30
2019-03-05T14:55:34.719Z,29.30
2019-03-05T14:58:11.649Z,29.30
2019-03-05T15:00:48.352Z,29.30
2019-03-05T15:03:24.814Z,29.40
2019-03-05T15:06:01.548Z,29.30
2019-03-05T15:08:38.590Z,29.20
2019-03-05T15:11:15.501Z,29.20
2019-03-05T15:13:52.448Z,29.10
2019-03-05T15:16:29.329Z,29.10
2019-03-05T15:19:06.782Z,29.10
2019-03-05T15:21:43.079Z,29.10
2019-03-05T15:24:20.367Z,29.10
2019-03-05T15:26:57.296Z,29.10
2019-03-05T15:29:34.389Z,29.10
2019-03-05T15:32:12.296Z,29.00
2019-03-05T15:34:48.490Z,29.10
2019-03-05T15:37:25.157Z,29.00
2019-03-05T15:40:02.947Z,28.90
2019-03-05T15:42:39.434Z,28.90
2019-03-05T15:45:18.337Z,28.90
2019-03-05T15:47:55.569Z,28.80
2019-03-05T15:50:32.599Z,28.80
2019-03-05T15:53:11.530Z,28.80
2019-03-05T15:55:48.752Z,28.80
2019-03-05T15:58:26.238Z,28.80
2019-03-05T16:01:03.680Z,28.70
2019-03-05T16:03:41.969Z,28.70
2019-03-05T16:06:19.462Z,28.80
2019-03-05T16:08:57.887Z,28.80
2019-03-05T16:11:35.434Z,28.70
2019-03-05T16:14:12.280Z,28.70
2019-03-05T16:16:51.680Z,28.70
2019-03-05T16:19:28.349Z,28.60
2019-03-05T16:22:04.921Z,28.60
2019-03-05T16:24:42.070Z,28.60
2019-03-05T16:27:18.924Z,28.60
2019-03-05T16:29:56.913Z,28.50
2019-03-05T16:32:41.317Z,28.60
2019-03-05T16:35:34.989Z,28.70
2019-03-05T16:38:28.690Z,28.60
2019-03-05T16:41:26.991Z,28.60
2019-03-05T16:44:11.351Z,28.60
2019-03-05T16:47:05.268Z,28.50
2019-03-05T16:50:03.151Z,28.50
2019-03-05T16:53:01.524Z,28.50
2019-03-05T16:55:48.854Z,28.50
2019-03-05T16:58:50.187Z,28.40
2019-03-05T17:01:43.628Z,28.40
2019-03-05T17:04:34.433Z,28.40
2019-03-05T17:07:38.592Z,28.40
2019-03-05T17:10:26.015Z,28.40
2019-03-05T17:13:03.298Z,28.40
2019-03-05T17:15:40.236Z,28.30
2019-03-05T17:18:17.046Z,28.40
2019-03-05T17:20:53.922Z,28.40
2019-03-05T17:23:30.839Z,28.40
2019-03-05T17:26:08.019Z,28.30
2019-03-05T17:28:44.842Z,28.30
2019-03-05T17:31:22.208Z,28.30
2019-03-05T17:33:58.757Z,28.30
2019-03-05T17:36:35.832Z,28.40
2019-03-05T17:39:19.558Z,28.40
2019-03-05T17:41:56.690Z,28.40
2019-03-05T17:44:34.825Z,28.30
2019-03-05T17:47:11.582Z,28.30
2019-03-05T17:49:48.628Z,28.20
2019-03-05T17:52:25.803Z,28.20
2019-03-05T17:55:02.997Z,28.20
2019-03-05T17:57:41.491Z,28.10
2019-03-05T18:00:26.772Z,28.10
2019-03-05T18:03:04.812Z,28.00
2019-03-05T18:05:42.509Z,28.00
2019-03-05T18:08:19.466Z,28.00
2019-03-05T18:10:56.379Z,27.90
2019-03-05T18:13:34.349Z,27.90
2019-03-05T18:16:11.441Z,27.90
2019-03-05T18:18:48.463Z,27.80
2019-03-05T18:21:25.413Z,27.80
2019-03-05T18:24:03.114Z,27.80
2019-03-05T18:26:40.626Z,27.80
2019-03-05T18:29:18.420Z,27.80
2019-03-05T18:31:55.708Z,27.70
2019-03-05T18:34:32.776Z,27.70
2019-03-05T18:37:09.705Z,27.70
2019-03-05T18:39:46.915Z,27.60
2019-03-05T18:42:23.653Z,27.60
2019-03-05T18:45:00.397Z,27.60
2019-03-05T18:47:38.538Z,27.50
2019-03-05T18:50:17.684Z,27.50
2019-03-05T18:52:55.533Z,27.40
2019-03-05T18:55:32.628Z,27.50
2019-03-05T18:58:09.486Z,27.40
2019-03-05T19:00:46.890Z,27.40
2019-03-05T19:03:23.725Z,27.40
2019-03-05T19:06:00.905Z,27.40
2019-03-05T19:08:37.961Z,27.40
2019-03-05T19:11:14.951Z,27.30
2019-03-05T19:13:53.986Z,27.40
2019-03-05T19:16:38.267Z,27.30
2019-03-05T19:19:15.150Z,27.20
2019-03-05T19:21:51.966Z,27.20
2019-03-05T19:24:29.435Z,27.20
2019-03-05T19:27:06.742Z,27.10
2019-03-05T19:29:43.205Z,27.10
2019-03-05T19:32:21.056Z,27.10
2019-03-05T19:34:58.281Z,27.10
2019-03-05T19:37:35.042Z,26.90
2019-03-05T19:40:13.629Z,26.90
2019-03-05T19:42:50.261Z,26.80
2019-03-05T19:45:27.257Z,26.90
2019-03-05T19:48:04.352Z,26.80
2019-03-05T19:50:41.192Z,26.70
2019-03-05T19:53:18.270Z,26.70
2019-03-05T19:55:55.132Z,26.70
2019-03-05T19:58:31.510Z,26.70
2019-03-05T20:01:24.239Z,26.70
2019-03-05T20:04:01.176Z,26.60
2019-03-05T20:06:39.018Z,26.60
2019-03-05T20:09:33.550Z,26.50
2019-03-05T20:12:10.618Z,26.60
2019-03-05T20:14:47.623Z,26.60
2019-03-05T20:17:24.330Z,26.50
2019-03-05T20:20:01.327Z,26.40
2019-03-05T20:22:38.028Z,26.40
2019-03-05T20:25:17.826Z,26.40
2019-03-05T20:27:54.970Z,26.20
2019-03-05T20:30:31.819Z,26.10
2019-03-05T20:33:08.850Z,26.30
2019-03-05T20:35:47.115Z,26.30
2019-03-05T20:38:24.301Z,26.20
2019-03-05T20:41:03.247Z,26.10
2019-03-05T20:43:40.718Z,26.00
2019-03-05T20:46:21.656Z,26.00
2019-03-05T20:48:58.788Z,26.00
2019-03-05T20:51:35.921Z,25.70
2019-03-05T20:54:12.545Z,25.50
2019-03-05T20:56:49.432Z,25.40
2019-03-05T20:59:26.305Z,25.40
2019-03-05T21:02:03.102Z,25.30
2019-03-05T21:04:40.326Z,25.40
2019-03-05T21:07:18.106Z,25.60
2019-03-05T21:09:55.517Z,25.80
2019-03-05T21:12:32.604Z,25.70
2019-03-05T21:15:09.740Z,25.80
2019-03-05T21:17:47.375Z,25.80
2019-03-05T21:20:24.998Z,25.80
2019-03-05T21:23:02.227Z,25.70
2019-03-05T21:25:39.167Z,25.80
2019-03-05T21:28:16.010Z,25.70
2019-03-05T21:30:52.951Z,25.50
2019-03-05T21:33:30.666Z,25.60
2019-03-05T21:36:07.533Z,25.60
2019-03-05T21:38:44.717Z,25.60
2019-03-05T21:41:21.887Z,25.60
2019-03-05T21:43:58.596Z,25.40
2019-03-05T21:46:37.009Z,25.10
2019-03-05T21:49:14.143Z,25.10
2019-03-05T21:51:51.111Z,25.00
2019-03-05T21:54:27.903Z,25.00
2019-03-05T21:57:05.731Z,24.90
2019-03-05T21:59:42.695Z,24.80
2019-03-05T22:02:22.193Z,24.80
2019-03-05T22:04:57.680Z,24.70
2019-03-05T22:07:34.709Z,24.60
2019-03-05T22:10:13.465Z,24.50
2019-03-05T22:12:50.303Z,24.40
2019-03-05T22:15:28.194Z,24.10
2019-03-05T22:18:05.706Z,24.00
2019-03-05T22:20:42.958Z,23.90
2019-03-05T22:23:19.649Z,23.90
2019-03-05T22:25:56.782Z,23.90
2019-03-05T22:28:33.872Z,23.80
2019-03-05T22:31:10.992Z,23.90
2019-03-05T22:33:48.253Z,23.90
2019-03-05T22:36:25.475Z,23.80
2019-03-05T22:39:02.240Z,23.80
2019-03-05T22:41:41.290Z,23.70
2019-03-05T22:44:18.186Z,23.70
2019-03-05T22:46:54.884Z,23.70
2019-03-05T22:49:31.799Z,23.70
2019-03-05T22:52:08.731Z,23.70
2019-03-05T22:54:45.384Z,23.80
2019-03-05T22:57:23.538Z,23.90
2019-03-05T23:00:00.390Z,23.90
2019-03-05T23:02:38.900Z,23.70
2019-03-05T23:05:15.908Z,23.60
2019-03-05T23:07:53.284Z,23.50
2019-03-05T23:10:31.000Z,23.50
2019-03-05T23:13:07.730Z,23.30
2019-03-05T23:15:44.919Z,23.20
2019-03-05T23:18:22.426Z,23.00
2019-03-05T23:20:59.914Z,23.00
2019-03-05T23:23:36.879Z,23.00
2019-03-05T23:26:14.265Z,23.00
2019-03-05T23:28:51.777Z,22.90
2019-03-05T23:31:28.581Z,22.90
2019-03-05T23:34:05.590Z,22.90
2019-03-05T23:36:42.050Z,23.00
2019-03-05T23:39:21.880Z,22.80
2019-03-05T23:41:58.494Z,22.70
2019-03-05T23:44:35.475Z,22.80
2019-03-05T23:47:13.185Z,22.90
2019-03-05T23:49:50.430Z,22.80
2019-03-05T23:52:28.187Z,22.90
2019-03-05T23:55:05.493Z,23.00
2019-03-05T23:57:42.237Z,23.20
